createdAt,value
2023-03-05T00:04:43.262Z,4.8
2023-03-05T00:09:49.456Z,4.8
2023-03-05T00:14:55.608Z,4.7
2023-03-05T00:20:03.554Z,4.7
2023-03-05T00:25:09.752Z,4.7
2023-03-05T00:30:15.900Z,4.7
2023-03-05T00:35:22.109Z,4.7
2023-03-05T00:40:28.366Z,4.7
2023-03-05T00:45:36.207Z,4.7
2023-03-05T00:50:44.176Z,4.7
2023-03-05T00:55:52.146Z,4.7
2023-03-05T01:00:58.300Z,4.7
2023-03-05T01:06:04.472Z,4.7
2023-03-05T01:11:10.703Z,4.6
2023-03-05T01:16:16.870Z,4.6
2023-03-05T01:21:24.805Z,4.6
2023-03-05T01:26:30.966Z,4.6
2023-03-05T01:31:37.165Z,4.6
2023-03-05T01:36:45.066Z,4.6
2023-03-05T01:41:53.061Z,4.6
2023-03-05T01:47:00.997Z,4.6
2023-03-05T01:52:07.202Z,4.6
2023-03-05T01:57:13.369Z,4.6
2023-03-05T02:02:21.300Z,4.6
2023-03-05T02:07:29.265Z,4.6
2023-03-05T02:12:37.176Z,4.5
2023-03-05T02:17:43.410Z,4.5
2023-03-05T02:22:49.584Z,4.5
2023-03-05T02:27:55.776Z,4.5
2023-03-05T02:33:03.710Z,4.5
2023-03-05T02:38:09.883Z,4.5
2023-03-05T02:43:16.093Z,4.5
2023-03-05T02:48:22.249Z,4.5
2023-03-05T02:53:30.204Z,4.5
2023-03-05T02:58:38.177Z,4.5
2023-03-05T03:03:46.391Z,4.5
2023-03-05T03:08:54.072Z,4.4
2023-03-05T03:14:02.058Z,4.4
2023-03-05T03:24:16.167Z,4.4
2023-03-05T03:29:22.375Z,4.4
2023-03-05T03:34:30.237Z,4.4
2023-03-05T03:39:38.266Z,4.4
2023-03-05T03:44:44.469Z,4.4
2023-03-05T03:49:52.389Z,4.4
2023-03-05T03:55:00.508Z,4.4
2023-03-05T04:00:08.378Z,4.4
2023-03-05T04:05:14.470Z,4.3
2023-03-05T04:10:20.666Z,4.3
2023-03-05T04:15:26.810Z,4.3
2023-03-05T04:20:33.008Z,4.3
2023-03-05T04:25:40.964Z,4.3
2023-03-05T04:30:48.988Z,4.3
2023-03-05T04:35:56.931Z,4.3
2023-03-05T04:41:04.843Z,4.3
2023-03-05T04:46:12.927Z,4.3
2023-03-05T04:51:20.752Z,4.3
2023-03-05T04:56:27.096Z,4.3
2023-03-05T05:01:34.953Z,4.2
2023-03-05T05:06:41.101Z,4.2
2023-03-05T05:11:47.231Z,4.2
2023-03-05T05:16:53.454Z,4.2
2023-03-05T05:21:59.587Z,4.2
2023-03-05T05:27:07.556Z,4.2
2023-03-05T05:32:15.609Z,4.2
2023-03-05T05:37:21.665Z,4.2
2023-03-05T05:42:29.721Z,4.2
2023-03-05T05:47:35.857Z,4.2
2023-03-05T05:52:43.774Z,4.2
2023-03-05T05:57:51.733Z,4.1
2023-03-05T06:02:59.744Z,4.1
2023-03-05T06:08:05.874Z,4.1
2023-03-05T06:13:13.833Z,4.1
2023-03-05T06:18:21.942Z,4.1
2023-03-05T06:23:28.105Z,4.1
2023-03-05T06:28:34.149Z,4.1
2023-03-05T06:33:42.128Z,4.1
2023-03-05T06:38:49.016Z,4.1
2023-03-05T06:43:54.469Z,4.1
2023-03-05T06:49:00.644Z,4.1
2023-03-05T06:54:06.809Z,4
2023-03-05T06:59:12.970Z,4
2023-03-05T07:04:20.957Z,4
2023-03-05T07:09:27.135Z,4
2023-03-05T07:14:33.541Z,4
2023-03-05T07:19:39.501Z,4
2023-03-05T07:24:45.670Z,4
2023-03-05T07:29:53.615Z,4
2023-03-05T07:34:59.810Z,4
2023-03-05T07:40:05.919Z,4
2023-03-05T07:45:13.920Z,4
2023-03-05T07:50:21.905Z,4
2023-03-05T07:55:29.837Z,4
2023-03-05T08:00:37.780Z,4
2023-03-05T08:05:45.781Z,4
2023-03-05T08:10:51.930Z,4
2023-03-05T08:15:59.909Z,4
2023-03-05T08:21:07.867Z,4
2023-03-05T08:26:15.742Z,4
2023-03-05T08:31:23.832Z,4
2023-03-05T08:36:31.733Z,4.1
2023-03-05T08:41:37.909Z,4.1
2023-03-05T08:46:44.148Z,4.1
2023-03-05T08:51:52.060Z,4.1
2023-03-05T08:57:00.001Z,4.1
2023-03-05T09:02:07.988Z,4.2
2023-03-05T09:07:15.953Z,4.2
2023-03-05T09:12:22.064Z,4.2
2023-03-05T09:17:30.041Z,4.3
2023-03-05T09:22:36.234Z,4.3
2023-03-05T09:27:42.423Z,4.3
2023-03-05T09:32:48.717Z,4.3
2023-03-05T09:37:56.544Z,4.4
2023-03-05T09:43:02.716Z,4.4
2023-03-05T09:48:10.593Z,4.4
2023-03-05T09:53:18.638Z,4.4
2023-03-05T09:58:26.601Z,4.4
2023-03-05T10:03:32.752Z,4.5
2023-03-05T10:08:38.952Z,4.5
2023-03-05T10:13:45.103Z,4.5
2023-03-05T10:18:51.287Z,4.5
2023-03-05T10:23:57.478Z,4.6
2023-03-05T10:29:05.435Z,4.6
2023-03-05T10:34:13.365Z,4.6
2023-03-05T10:39:21.348Z,4.6
2023-03-05T10:44:27.538Z,4.7
2023-03-05T10:49:33.686Z,4.7
2023-03-05T10:54:39.877Z,4.7
2023-03-05T10:59:46.037Z,4.7
2023-03-05T11:04:53.975Z,4.8
2023-03-05T11:10:01.917Z,4.8
2023-03-05T11:15:09.910Z,4.8
2023-03-05T11:20:16.093Z,4.8
2023-03-05T11:25:24.061Z,4.8
2023-03-05T11:30:32.108Z,4.8
2023-03-05T11:35:40.069Z,4.9
2023-03-05T11:40:46.166Z,4.9
2023-03-05T11:45:52.291Z,4.9
2023-03-05T11:51:00.254Z,4.9
2023-03-05T11:56:08.241Z,4.9
2023-03-05T12:01:14.404Z,4.9
2023-03-05T12:06:20.573Z,4.9
2023-03-05T12:11:26.889Z,4.9
2023-03-05T12:16:34.763Z,4.9
2023-03-05T12:21:41.261Z,4.9
2023-03-05T12:26:48.888Z,4.9
2023-03-05T12:31:56.810Z,4.9
2023-03-05T12:37:05.069Z,4.9
2023-03-05T12:42:12.769Z,4.9
2023-03-05T12:47:20.675Z,4.9
2023-03-05T12:52:28.646Z,5
2023-03-05T12:57:36.743Z,5
2023-03-05T13:02:44.540Z,5
2023-03-05T13:07:52.506Z,5
2023-03-05T13:13:00.480Z,5
2023-03-05T13:18:08.410Z,5
2023-03-05T13:23:14.599Z,5.1
2023-03-05T13:28:20.773Z,5.1
2023-03-05T13:33:26.980Z,5.1
2023-03-05T13:38:34.889Z,5.1
2023-03-05T13:43:41.071Z,5.2
2023-03-05T13:48:47.353Z,5.2
2023-03-05T13:53:55.203Z,5.2
2023-03-05T13:59:01.393Z,5.2
2023-03-05T14:04:07.553Z,5.2
2023-03-05T14:09:14.266Z,5.2
2023-03-05T14:14:21.698Z,5.3
2023-03-05T14:19:29.640Z,5.3
2023-03-05T14:24:37.614Z,5.3
2023-03-05T14:29:43.824Z,5.3
2023-03-05T14:34:51.717Z,5.3
2023-03-05T14:39:57.894Z,5.4
2023-03-05T14:45:05.916Z,5.4
2023-03-05T14:50:13.827Z,5.4
2023-03-05T14:55:20.002Z,5.4
2023-03-05T15:00:27.996Z,5.4
2023-03-05T15:05:35.926Z,5.4
2023-03-05T15:10:43.808Z,5.5
2023-03-05T15:15:50.147Z,5.5
2023-03-05T15:20:58.011Z,5.5
2023-03-05T15:26:05.965Z,5.5
2023-03-05T15:31:13.983Z,5.5
2023-03-05T15:36:21.909Z,5.5
2023-03-05T15:41:28.061Z,5.5
2023-03-05T15:46:34.308Z,5.5
2023-03-05T15:51:40.423Z,5.5
2023-03-05T15:56:48.307Z,5.5
2023-03-05T16:01:54.624Z,5.5
2023-03-05T16:07:00.725Z,5.5
2023-03-05T16:12:08.685Z,5.5
2023-03-05T16:17:16.669Z,5.5
2023-03-05T16:22:22.824Z,5.5
2023-03-05T16:27:28.994Z,5.5
2023-03-05T16:32:37.077Z,5.5
2023-03-05T16:37:43.075Z,5.4
2023-03-05T16:42:49.286Z,5.4
2023-03-05T16:47:57.427Z,5.4
2023-03-05T16:53:05.254Z,5.4
2023-03-05T16:58:13.162Z,5.4
2023-03-05T17:03:19.389Z,5.4
2023-03-05T17:08:25.526Z,5.4
2023-03-05T17:13:31.759Z,5.3
2023-03-05T17:18:39.700Z,5.3
2023-03-05T17:23:45.819Z,5.3
2023-03-05T17:28:54.130Z,5.3
2023-03-05T17:33:58.231Z,5.3
2023-03-05T17:39:06.173Z,5.3
2023-03-05T17:44:14.096Z,5.2
2023-03-05T17:49:22.087Z,5.2
2023-03-05T17:54:28.241Z,5.2
2023-03-05T17:59:36.193Z,5.2
2023-03-05T18:04:42.507Z,5.2
2023-03-05T18:09:48.549Z,5.2
2023-03-05T18:14:54.714Z,5.1
2023-03-05T18:20:03.814Z,5.1
2023-03-05T18:25:08.863Z,5.1
2023-03-05T18:30:15.012Z,5.1
2023-03-05T18:35:23.050Z,5.1
2023-03-05T18:40:30.984Z,5
2023-03-05T18:45:38.906Z,5
2023-03-05T18:50:45.108Z,5
2023-03-05T18:55:53.062Z,5
2023-03-05T19:01:01.021Z,5
2023-03-05T19:06:08.960Z,4.9
2023-03-05T19:11:15.097Z,4.9
2023-03-05T19:16:21.271Z,4.9
2023-03-05T19:21:29.285Z,4.9
2023-03-05T19:26:35.436Z,4.9
2023-03-05T19:31:41.601Z,4.8
2023-03-05T19:36:49.572Z,4.8
2023-03-05T19:41:57.507Z,4.8
2023-03-05T19:47:05.468Z,4.8
2023-03-05T19:52:13.461Z,4.8
2023-03-05T19:57:19.640Z,4.8
2023-03-05T20:02:25.769Z,4.7
2023-03-05T20:07:33.785Z,4.7
2023-03-05T20:12:41.706Z,4.7
2023-03-05T20:17:49.679Z,4.7
2023-03-05T20:22:57.806Z,4.7
2023-03-05T20:28:05.598Z,4.7
2023-03-05T20:38:19.737Z,4.6
2023-03-05T20:43:25.930Z,4.6
2023-03-05T20:48:32.058Z,4.6
2023-03-05T20:53:40.062Z,4.6
2023-03-05T20:58:47.998Z,4.6
2023-03-05T21:03:55.959Z,4.5
2023-03-05T21:09:02.157Z,4.5
2023-03-05T21:14:10.184Z,4.5
2023-03-05T21:19:18.047Z,4.5
2023-03-05T21:24:26.017Z,4.5
2023-03-05T21:29:33.955Z,4.5
2023-03-05T21:34:41.911Z,4.5
2023-03-05T21:39:49.930Z,4.5
2023-03-05T21:44:57.957Z,4.5
2023-03-05T21:50:05.816Z,4.5
2023-03-05T21:55:13.787Z,4.4
2023-03-05T22:00:21.721Z,4.4
2023-03-05T22:05:29.680Z,4.4
2023-03-05T22:10:37.648Z,4.4
2023-03-05T22:15:45.627Z,4.4
2023-03-05T22:20:51.776Z,4.4
2023-03-05T22:25:59.754Z,4.4
2023-03-05T22:31:07.735Z,4.4
2023-03-05T22:36:15.630Z,4.4
2023-03-05T22:41:23.617Z,4.4
2023-03-05T22:46:31.551Z,4.4
2023-03-05T22:51:37.709Z,4.3
2023-03-05T22:56:45.731Z,4.3
2023-03-05T23:01:51.866Z,4.3
2023-03-05T23:06:59.817Z,4.3
2023-03-05T23:12:07.814Z,4.3
2023-03-05T23:17:13.983Z,4.3
2023-03-05T23:22:20.129Z,4.3
2023-03-05T23:27:26.354Z,4.3
2023-03-05T23:32:34.326Z,4.3
2023-03-05T23:37:42.248Z,4.3
2023-03-05T23:42:50.209Z,4.3
2023-03-05T23:47:58.148Z,4.2
2023-03-05T23:53:06.120Z,4.2
2023-03-05T23:58:14.094Z,4.2
